sensor_id;sensor_type;location;lat;lon;timestamp;temperature;humidity
27671;DHT22;15077;49.704;9.908;2023-02-28T00:00:13;1.60;61.50
27671;DHT22;15077;49.704;9.908;2023-02-28T00:02:41;1.60;61.60
27671;DHT22;15077;49.704;9.908;2023-02-28T00:05:09;1.60;61.60
27671;DHT22;15077;49.704;9.908;2023-02-28T00:07:37;1.50;61.70
27671;DHT22;15077;49.704;9.908;2023-02-28T00:10:05;1.50;61.70
27671;DHT22;15077;49.704;9.908;2023-02-28T00:12:33;1.50;61.70
27671;DHT22;15077;49.704;9.908;2023-02-28T00:15:00;1.50;61.70
27671;DHT22;15077;49.704;9.908;2023-02-28T00:17:26;1.50;61.70
27671;DHT22;15077;49.704;9.908;2023-02-28T00:19:52;1.50;61.70
27671;DHT22;15077;49.704;9.908;2023-02-28T00:22:19;1.50;61.70
27671;DHT22;15077;49.704;9.908;2023-02-28T00:24:46;1.50;61.70
27671;DHT22;15077;49.704;9.908;2023-02-28T00:27:14;1.40;61.50
27671;DHT22;15077;49.704;9.908;2023-02-28T00:29:40;1.40;61.50
27671;DHT22;15077;49.704;9.908;2023-02-28T00:32:06;1.50;61.60
27671;DHT22;15077;49.704;9.908;2023-02-28T00:34:32;1.40;61.40
27671;DHT22;15077;49.704;9.908;2023-02-28T00:37:04;1.40;61.40
27671;DHT22;15077;49.704;9.908;2023-02-28T00:39:31;1.50;61.40
27671;DHT22;15077;49.704;9.908;2023-02-28T00:41:59;1.50;61.30
27671;DHT22;15077;49.704;9.908;2023-02-28T00:44:25;1.50;61.20
27671;DHT22;15077;49.704;9.908;2023-02-28T00:46:51;1.50;61.20
27671;DHT22;15077;49.704;9.908;2023-02-28T00:49:17;1.50;61.10
27671;DHT22;15077;49.704;9.908;2023-02-28T00:51:43;1.60;61.10
27671;DHT22;15077;49.704;9.908;2023-02-28T00:54:08;1.50;61.10
27671;DHT22;15077;49.704;9.908;2023-02-28T00:56:34;1.50;61.00
27671;DHT22;15077;49.704;9.908;2023-02-28T00:59:00;1.50;61.00
27671;DHT22;15077;49.704;9.908;2023-02-28T01:01:26;1.50;61.00
27671;DHT22;15077;49.704;9.908;2023-02-28T01:03:51;1.50;61.00
27671;DHT22;15077;49.704;9.908;2023-02-28T01:06:17;1.60;61.10
27671;DHT22;15077;49.704;9.908;2023-02-28T01:08:43;1.50;61.00
27671;DHT22;15077;49.704;9.908;2023-02-28T01:11:10;1.50;61.00
27671;DHT22;15077;49.704;9.908;2023-02-28T01:13:38;1.60;61.00
27671;DHT22;15077;49.704;9.908;2023-02-28T01:16:04;1.50;61.00
27671;DHT22;15077;49.704;9.908;2023-02-28T01:18:30;1.50;61.00
27671;DHT22;15077;49.704;9.908;2023-02-28T01:20:56;1.50;61.00
27671;DHT22;15077;49.704;9.908;2023-02-28T01:23:23;1.50;61.00
27671;DHT22;15077;49.704;9.908;2023-02-28T01:25:51;1.40;61.10
27671;DHT22;15077;49.704;9.908;2023-02-28T01:28:18;1.40;61.20
27671;DHT22;15077;49.704;9.908;2023-02-28T01:30:48;1.40;61.30
27671;DHT22;15077;49.704;9.908;2023-02-28T01:33:14;1.40;61.50
27671;DHT22;15077;49.704;9.908;2023-02-28T01:35:40;1.40;61.50
27671;DHT22;15077;49.704;9.908;2023-02-28T01:38:06;1.30;61.40
27671;DHT22;15077;49.704;9.908;2023-02-28T01:40:31;1.30;61.50
27671;DHT22;15077;49.704;9.908;2023-02-28T01:42:57;1.30;61.50
27671;DHT22;15077;49.704;9.908;2023-02-28T01:45:29;1.30;61.50
27671;DHT22;15077;49.704;9.908;2023-02-28T01:48:02;1.20;61.60
27671;DHT22;15077;49.704;9.908;2023-02-28T01:50:35;1.20;61.60
27671;DHT22;15077;49.704;9.908;2023-02-28T01:53:07;1.20;61.60
27671;DHT22;15077;49.704;9.908;2023-02-28T01:55:37;1.20;61.70
27671;DHT22;15077;49.704;9.908;2023-02-28T01:58:07;1.20;61.60
27671;DHT22;15077;49.704;9.908;2023-02-28T02:00:34;1.20;61.50
27671;DHT22;15077;49.704;9.908;2023-02-28T02:03:09;1.20;61.40
27671;DHT22;15077;49.704;9.908;2023-02-28T02:05:39;1.20;61.50
27671;DHT22;15077;49.704;9.908;2023-02-28T02:08:15;1.20;61.40
27671;DHT22;15077;49.704;9.908;2023-02-28T02:10:48;1.20;61.40
27671;DHT22;15077;49.704;9.908;2023-02-28T02:16:34;1.20;61.30
27671;DHT22;15077;49.704;9.908;2023-02-28T02:45:53;1.20;60.90
27671;DHT22;15077;49.704;9.908;2023-02-28T02:48:26;1.20;60.90
27671;DHT22;15077;49.704;9.908;2023-02-28T02:51:01;1.20;60.90
27671;DHT22;15077;49.704;9.908;2023-02-28T02:53:35;1.10;60.90
27671;DHT22;15077;49.704;9.908;2023-02-28T02:56:07;1.10;60.90
27671;DHT22;15077;49.704;9.908;2023-02-28T02:58:40;1.10;61.50
27671;DHT22;15077;49.704;9.908;2023-02-28T03:01:12;1.10;60.90
27671;DHT22;15077;49.704;9.908;2023-02-28T03:04:02;1.10;60.90
27671;DHT22;15077;49.704;9.908;2023-02-28T03:06:31;1.20;60.90
27671;DHT22;15077;49.704;9.908;2023-02-28T03:08:57;1.10;60.70
27671;DHT22;15077;49.704;9.908;2023-02-28T03:11:25;1.20;60.80
27671;DHT22;15077;49.704;9.908;2023-02-28T03:17:10;1.20;60.70
27671;DHT22;15077;49.704;9.908;2023-02-28T03:25:55;1.20;60.60
27671;DHT22;15077;49.704;9.908;2023-02-28T03:28:38;1.20;60.50
27671;DHT22;15077;49.704;9.908;2023-02-28T03:34:12;1.20;60.40
27671;DHT22;15077;49.704;9.908;2023-02-28T03:36:53;1.10;60.30
27671;DHT22;15077;49.704;9.908;2023-02-28T03:39:40;1.10;60.30
27671;DHT22;15077;49.704;9.908;2023-02-28T03:42:14;1.10;60.20
27671;DHT22;15077;49.704;9.908;2023-02-28T03:44:55;1.10;60.20
27671;DHT22;15077;49.704;9.908;2023-02-28T03:47:43;1.10;60.10
27671;DHT22;15077;49.704;9.908;2023-02-28T03:50:39;1.00;60.10
27671;DHT22;15077;49.704;9.908;2023-02-28T03:53:16;1.00;60.10
27671;DHT22;15077;49.704;9.908;2023-02-28T03:56:05;1.00;60.10
27671;DHT22;15077;49.704;9.908;2023-02-28T03:58:40;1.00;60.10
27671;DHT22;15077;49.704;9.908;2023-02-28T04:01:36;1.00;60.10
27671;DHT22;15077;49.704;9.908;2023-02-28T04:04:08;1.00;60.10
27671;DHT22;15077;49.704;9.908;2023-02-28T04:06:34;1.00;60.20
27671;DHT22;15077;49.704;9.908;2023-02-28T04:09:02;0.90;60.00
27671;DHT22;15077;49.704;9.908;2023-02-28T04:11:37;0.90;60.00
27671;DHT22;15077;49.704;9.908;2023-02-28T04:14:07;0.90;60.00
27671;DHT22;15077;49.704;9.908;2023-02-28T04:16:36;0.80;60.00
27671;DHT22;15077;49.704;9.908;2023-02-28T04:19:05;0.80;60.00
27671;DHT22;15077;49.704;9.908;2023-02-28T04:21:35;0.80;60.00
27671;DHT22;15077;49.704;9.908;2023-02-28T04:24:10;0.80;60.00
27671;DHT22;15077;49.704;9.908;2023-02-28T04:26:41;0.80;60.10
27671;DHT22;15077;49.704;9.908;2023-02-28T04:29:13;0.80;60.10
27671;DHT22;15077;49.704;9.908;2023-02-28T04:31:40;0.70;60.10
27671;DHT22;15077;49.704;9.908;2023-02-28T04:34:06;0.70;60.00
27671;DHT22;15077;49.704;9.908;2023-02-28T04:36:32;0.70;60.10
27671;DHT22;15077;49.704;9.908;2023-02-28T04:38:58;0.70;60.00
27671;DHT22;15077;49.704;9.908;2023-02-28T04:41:24;0.70;60.10
27671;DHT22;15077;49.704;9.908;2023-02-28T04:43:53;0.70;60.10
27671;DHT22;15077;49.704;9.908;2023-02-28T04:46:19;0.70;60.20
27671;DHT22;15077;49.704;9.908;2023-02-28T04:48:46;0.70;60.10
27671;DHT22;15077;49.704;9.908;2023-02-28T04:51:15;0.70;60.20
27671;DHT22;15077;49.704;9.908;2023-02-28T04:53:42;0.70;60.20
27671;DHT22;15077;49.704;9.908;2023-02-28T04:56:11;0.70;60.20
27671;DHT22;15077;49.704;9.908;2023-02-28T04:58:39;0.60;60.20
27671;DHT22;15077;49.704;9.908;2023-02-28T05:01:07;0.60;60.20
27671;DHT22;15077;49.704;9.908;2023-02-28T05:03:43;0.60;60.20
27671;DHT22;15077;49.704;9.908;2023-02-28T05:06:10;0.60;60.30
27671;DHT22;15077;49.704;9.908;2023-02-28T05:08:38;0.60;60.90
27671;DHT22;15077;49.704;9.908;2023-02-28T05:11:05;0.60;60.30
27671;DHT22;15077;49.704;9.908;2023-02-28T05:13:34;0.60;60.40
27671;DHT22;15077;49.704;9.908;2023-02-28T05:16:01;0.60;60.40
27671;DHT22;15077;49.704;9.908;2023-02-28T05:18:26;0.60;60.30
27671;DHT22;15077;49.704;9.908;2023-02-28T05:20:52;0.50;60.30
27671;DHT22;15077;49.704;9.908;2023-02-28T05:23:19;0.60;60.30
27671;DHT22;15077;49.704;9.908;2023-02-28T05:25:48;0.50;60.20
27671;DHT22;15077;49.704;9.908;2023-02-28T05:28:13;0.50;60.20
27671;DHT22;15077;49.704;9.908;2023-02-28T05:30:39;0.50;60.20
27671;DHT22;15077;49.704;9.908;2023-02-28T05:33:05;0.50;60.30
27671;DHT22;15077;49.704;9.908;2023-02-28T05:35:31;0.50;60.20
27671;DHT22;15077;49.704;9.908;2023-02-28T05:37:57;0.50;60.30
27671;DHT22;15077;49.704;9.908;2023-02-28T05:40:23;0.50;60.20
27671;DHT22;15077;49.704;9.908;2023-02-28T05:42:50;0.50;60.20
27671;DHT22;15077;49.704;9.908;2023-02-28T05:45:16;0.40;60.20
27671;DHT22;15077;49.704;9.908;2023-02-28T05:47:42;0.40;60.20
27671;DHT22;15077;49.704;9.908;2023-02-28T05:50:08;0.40;60.30
27671;DHT22;15077;49.704;9.908;2023-02-28T05:52:36;0.40;60.30
27671;DHT22;15077;49.704;9.908;2023-02-28T05:55:03;0.40;60.30
27671;DHT22;15077;49.704;9.908;2023-02-28T05:57:29;0.40;60.30
27671;DHT22;15077;49.704;9.908;2023-02-28T05:59:55;0.40;60.30
27671;DHT22;15077;49.704;9.908;2023-02-28T06:02:20;0.40;60.30
27671;DHT22;15077;49.704;9.908;2023-02-28T06:04:46;0.40;60.40
27671;DHT22;15077;49.704;9.908;2023-02-28T06:07:12;0.40;60.40
27671;DHT22;15077;49.704;9.908;2023-02-28T06:09:38;0.40;60.40
27671;DHT22;15077;49.704;9.908;2023-02-28T06:12:05;0.40;60.40
27671;DHT22;15077;49.704;9.908;2023-02-28T06:14:33;0.40;60.40
27671;DHT22;15077;49.704;9.908;2023-02-28T06:17:00;0.40;60.40
27671;DHT22;15077;49.704;9.908;2023-02-28T06:19:26;0.30;60.40
27671;DHT22;15077;49.704;9.908;2023-02-28T06:21:55;0.30;60.40
27671;DHT22;15077;49.704;9.908;2023-02-28T06:24:23;0.30;60.40
27671;DHT22;15077;49.704;9.908;2023-02-28T06:26:50;0.30;60.40
27671;DHT22;15077;49.704;9.908;2023-02-28T06:29:16;0.30;60.40
27671;DHT22;15077;49.704;9.908;2023-02-28T06:31:44;0.30;60.60
27671;DHT22;15077;49.704;9.908;2023-02-28T06:34:11;0.30;60.60
27671;DHT22;15077;49.704;9.908;2023-02-28T06:36:39;0.30;60.80
27671;DHT22;15077;49.704;9.908;2023-02-28T06:39:06;0.30;60.80
27671;DHT22;15077;49.704;9.908;2023-02-28T06:41:33;0.30;61.00
27671;DHT22;15077;49.704;9.908;2023-02-28T06:44:04;0.20;61.10
27671;DHT22;15077;49.704;9.908;2023-02-28T06:46:31;0.20;61.40
27671;DHT22;15077;49.704;9.908;2023-02-28T06:48:57;0.20;61.60
27671;DHT22;15077;49.704;9.908;2023-02-28T06:51:23;0.20;61.80
27671;DHT22;15077;49.704;9.908;2023-02-28T06:53:50;0.20;61.80
27671;DHT22;15077;49.704;9.908;2023-02-28T06:56:17;0.20;62.00
27671;DHT22;15077;49.704;9.908;2023-02-28T06:58:50;0.20;62.20
27671;DHT22;15077;49.704;9.908;2023-02-28T07:01:17;0.20;62.20
27671;DHT22;15077;49.704;9.908;2023-02-28T07:03:44;0.20;62.80
27671;DHT22;15077;49.704;9.908;2023-02-28T07:06:11;0.20;62.40
27671;DHT22;15077;49.704;9.908;2023-02-28T07:08:37;0.20;62.60
27671;DHT22;15077;49.704;9.908;2023-02-28T07:11:04;0.30;63.00
27671;DHT22;15077;49.704;9.908;2023-02-28T07:13:30;0.30;62.90
27671;DHT22;15077;49.704;9.908;2023-02-28T07:16:00;0.30;62.90
27671;DHT22;15077;49.704;9.908;2023-02-28T07:18:27;0.30;63.20
27671;DHT22;15077;49.704;9.908;2023-02-28T07:20:53;0.40;62.80
27671;DHT22;15077;49.704;9.908;2023-02-28T07:23:20;0.40;63.40
27671;DHT22;15077;49.704;9.908;2023-02-28T07:25:46;0.40;63.80
27671;DHT22;15077;49.704;9.908;2023-02-28T07:28:13;0.40;64.10
27671;DHT22;15077;49.704;9.908;2023-02-28T07:30:40;0.50;64.00
27671;DHT22;15077;49.704;9.908;2023-02-28T07:33:06;0.50;64.20
27671;DHT22;15077;49.704;9.908;2023-02-28T07:35:32;0.50;64.40
27671;DHT22;15077;49.704;9.908;2023-02-28T07:37:58;0.60;64.40
27671;DHT22;15077;49.704;9.908;2023-02-28T07:40:25;0.60;64.40
27671;DHT22;15077;49.704;9.908;2023-02-28T07:42:51;0.60;64.60
27671;DHT22;15077;49.704;9.908;2023-02-28T07:45:17;0.70;64.50
27671;DHT22;15077;49.704;9.908;2023-02-28T07:47:45;0.70;64.60
27671;DHT22;15077;49.704;9.908;2023-02-28T07:50:13;0.80;64.90
27671;DHT22;15077;49.704;9.908;2023-02-28T07:52:41;0.80;64.80
27671;DHT22;15077;49.704;9.908;2023-02-28T07:55:09;0.90;64.90
27671;DHT22;15077;49.704;9.908;2023-02-28T07:57:35;0.90;65.10
27671;DHT22;15077;49.704;9.908;2023-02-28T08:00:04;1.00;65.20
27671;DHT22;15077;49.704;9.908;2023-02-28T08:02:32;1.10;65.20
27671;DHT22;15077;49.704;9.908;2023-02-28T08:04:57;1.10;65.10
27671;DHT22;15077;49.704;9.908;2023-02-28T08:07:23;1.20;65.20
27671;DHT22;15077;49.704;9.908;2023-02-28T08:09:49;1.20;65.10
27671;DHT22;15077;49.704;9.908;2023-02-28T08:12:14;1.30;65.20
27671;DHT22;15077;49.704;9.908;2023-02-28T08:14:40;1.40;65.20
27671;DHT22;15077;49.704;9.908;2023-02-28T08:17:06;1.40;65.30
27671;DHT22;15077;49.704;9.908;2023-02-28T08:19:32;1.50;65.30
27671;DHT22;15077;49.704;9.908;2023-02-28T08:21:58;1.60;65.30
27671;DHT22;15077;49.704;9.908;2023-02-28T08:24:23;1.60;65.20
27671;DHT22;15077;49.704;9.908;2023-02-28T08:26:49;1.70;65.30
27671;DHT22;15077;49.704;9.908;2023-02-28T08:29:15;1.80;65.00
27671;DHT22;15077;49.704;9.908;2023-02-28T08:31:42;1.90;65.00
27671;DHT22;15077;49.704;9.908;2023-02-28T08:34:08;2.00;65.30
27671;DHT22;15077;49.704;9.908;2023-02-28T08:36:37;2.00;64.80
27671;DHT22;15077;49.704;9.908;2023-02-28T08:39:04;2.10;64.80
27671;DHT22;15077;49.704;9.908;2023-02-28T08:41:30;2.20;64.80
27671;DHT22;15077;49.704;9.908;2023-02-28T08:43:56;2.30;64.50
27671;DHT22;15077;49.704;9.908;2023-02-28T08:46:23;2.30;64.00
27671;DHT22;15077;49.704;9.908;2023-02-28T08:48:52;2.40;63.80
27671;DHT22;15077;49.704;9.908;2023-02-28T08:51:19;2.40;63.80
27671;DHT22;15077;49.704;9.908;2023-02-28T08:53:57;2.50;63.70
27671;DHT22;15077;49.704;9.908;2023-02-28T08:56:26;2.50;63.50
27671;DHT22;15077;49.704;9.908;2023-02-28T08:58:54;2.60;63.60
27671;DHT22;15077;49.704;9.908;2023-02-28T09:01:24;2.60;63.40
27671;DHT22;15077;49.704;9.908;2023-02-28T09:03:56;2.70;63.70
27671;DHT22;15077;49.704;9.908;2023-02-28T09:06:25;2.70;63.30
27671;DHT22;15077;49.704;9.908;2023-02-28T09:08:52;2.80;63.10
27671;DHT22;15077;49.704;9.908;2023-02-28T09:11:18;2.80;63.10
27671;DHT22;15077;49.704;9.908;2023-02-28T09:13:45;2.90;62.90
27671;DHT22;15077;49.704;9.908;2023-02-28T09:16:14;3.00;62.90
27671;DHT22;15077;49.704;9.908;2023-02-28T09:18:41;3.00;62.20
27671;DHT22;15077;49.704;9.908;2023-02-28T09:21:09;3.10;62.10
27671;DHT22;15077;49.704;9.908;2023-02-28T09:23:39;3.20;61.80
27671;DHT22;15077;49.704;9.908;2023-02-28T09:26:17;3.30;61.60
27671;DHT22;15077;49.704;9.908;2023-02-28T09:28:47;3.30;61.00
27671;DHT22;15077;49.704;9.908;2023-02-28T09:31:16;3.40;61.20
27671;DHT22;15077;49.704;9.908;2023-02-28T09:33:50;3.50;60.40
27671;DHT22;15077;49.704;9.908;2023-02-28T09:36:18;3.60;60.30
27671;DHT22;15077;49.704;9.908;2023-02-28T09:38:44;3.60;60.10
27671;DHT22;15077;49.704;9.908;2023-02-28T09:41:18;3.70;60.00
27671;DHT22;15077;49.704;9.908;2023-02-28T09:43:49;3.80;60.50
27671;DHT22;15077;49.704;9.908;2023-02-28T09:46:21;3.80;60.30
27671;DHT22;15077;49.704;9.908;2023-02-28T09:48:53;4.00;60.60
27671;DHT22;15077;49.704;9.908;2023-02-28T09:53:58;4.20;58.00
27671;DHT22;15077;49.704;9.908;2023-02-28T09:56:30;4.30;58.60
27671;DHT22;15077;49.704;9.908;2023-02-28T09:59:22;4.40;58.80
27671;DHT22;15077;49.704;9.908;2023-02-28T10:05:02;4.60;58.30
27671;DHT22;15077;49.704;9.908;2023-02-28T10:12:58;4.80;57.90
27671;DHT22;15077;49.704;9.908;2023-02-28T10:15:30;4.90;57.50
27671;DHT22;15077;49.704;9.908;2023-02-28T10:18:03;5.00;57.20
27671;DHT22;15077;49.704;9.908;2023-02-28T10:20:38;5.10;57.30
27671;DHT22;15077;49.704;9.908;2023-02-28T10:25:53;5.30;56.40
27671;DHT22;15077;49.704;9.908;2023-02-28T10:28:23;5.40;56.70
27671;DHT22;15077;49.704;9.908;2023-02-28T10:30:53;5.50;57.10
27671;DHT22;15077;49.704;9.908;2023-02-28T10:33:34;5.50;56.60
27671;DHT22;15077;49.704;9.908;2023-02-28T10:36:03;5.60;56.10
27671;DHT22;15077;49.704;9.908;2023-02-28T10:38:35;5.70;55.90
27671;DHT22;15077;49.704;9.908;2023-02-28T10:43:41;5.90;56.80
27671;DHT22;15077;49.704;9.908;2023-02-28T10:48:38;6.20;55.90
27671;DHT22;15077;49.704;9.908;2023-02-28T10:51:11;6.30;55.00
27671;DHT22;15077;49.704;9.908;2023-02-28T10:53:45;6.40;55.20
27671;DHT22;15077;49.704;9.908;2023-02-28T10:56:25;6.50;54.30
27671;DHT22;15077;49.704;9.908;2023-02-28T11:01:55;6.70;54.80
27671;DHT22;15077;49.704;9.908;2023-02-28T11:07:04;6.90;54.00
27671;DHT22;15077;49.704;9.908;2023-02-28T11:09:46;7.00;53.00
27671;DHT22;15077;49.704;9.908;2023-02-28T11:12:26;7.10;53.40
27671;DHT22;15077;49.704;9.908;2023-02-28T11:15:02;7.20;54.50
27671;DHT22;15077;49.704;9.908;2023-02-28T11:17:31;7.30;52.90
27671;DHT22;15077;49.704;9.908;2023-02-28T11:20:05;7.40;52.40
27671;DHT22;15077;49.704;9.908;2023-02-28T11:22:43;7.40;52.20
27671;DHT22;15077;49.704;9.908;2023-02-28T11:25:32;7.30;51.40
27671;DHT22;15077;49.704;9.908;2023-02-28T11:28:01;7.30;52.20
27671;DHT22;15077;49.704;9.908;2023-02-28T11:30:33;7.20;51.70
27671;DHT22;15077;49.704;9.908;2023-02-28T11:36:19;7.10;52.60
27671;DHT22;15077;49.704;9.908;2023-02-28T11:38:50;7.00;52.50
27671;DHT22;15077;49.704;9.908;2023-02-28T11:46:56;6.80;53.00
27671;DHT22;15077;49.704;9.908;2023-02-28T11:49:37;6.90;52.70
27671;DHT22;15077;49.704;9.908;2023-02-28T11:53:00;6.90;52.70
27671;DHT22;15077;49.704;9.908;2023-02-28T11:55:38;6.90;53.30
27671;DHT22;15077;49.704;9.908;2023-02-28T12:04:21;7.20;53.50
27671;DHT22;15077;49.704;9.908;2023-02-28T12:08:11;7.30;53.00
27671;DHT22;15077;49.704;9.908;2023-02-28T12:19:20;7.50;51.70
27671;DHT22;15077;49.704;9.908;2023-02-28T12:27:49;7.40;51.70
27671;DHT22;15077;49.704;9.908;2023-02-28T12:30:25;7.40;51.00
27671;DHT22;15077;49.704;9.908;2023-02-28T12:33:06;7.30;51.50
27671;DHT22;15077;49.704;9.908;2023-02-28T12:35:40;7.30;51.50
27671;DHT22;15077;49.704;9.908;2023-02-28T12:38:19;7.30;52.50
27671;DHT22;15077;49.704;9.908;2023-02-28T12:41:41;7.30;52.30
27671;DHT22;15077;49.704;9.908;2023-02-28T12:44:19;7.30;52.50
27671;DHT22;15077;49.704;9.908;2023-02-28T12:46:55;7.40;52.00
27671;DHT22;15077;49.704;9.908;2023-02-28T12:49:33;7.40;51.50
27671;DHT22;15077;49.704;9.908;2023-02-28T12:52:04;7.40;51.60
27671;DHT22;15077;49.704;9.908;2023-02-28T12:54:44;7.30;51.70
27671;DHT22;15077;49.704;9.908;2023-02-28T12:59:49;7.30;52.10
27671;DHT22;15077;49.704;9.908;2023-02-28T13:02:42;7.30;52.10
27671;DHT22;15077;49.704;9.908;2023-02-28T13:11:39;7.40;51.20
27671;DHT22;15077;49.704;9.908;2023-02-28T13:16:56;7.40;51.80
27671;DHT22;15077;49.704;9.908;2023-02-28T13:19:25;7.50;51.60
27671;DHT22;15077;49.704;9.908;2023-02-28T13:21:53;7.40;51.80
27671;DHT22;15077;49.704;9.908;2023-02-28T13:30:01;7.50;51.90
27671;DHT22;15077;49.704;9.908;2023-02-28T13:33:34;7.50;51.90
27671;DHT22;15077;49.704;9.908;2023-02-28T13:36:31;7.50;52.10
27671;DHT22;15077;49.704;9.908;2023-02-28T13:39:02;7.60;52.50
27671;DHT22;15077;49.704;9.908;2023-02-28T13:41:48;7.70;51.20
27671;DHT22;15077;49.704;9.908;2023-02-28T13:44:22;7.70;51.00
27671;DHT22;15077;49.704;9.908;2023-02-28T14:03:51;7.40;51.20
27671;DHT22;15077;49.704;9.908;2023-02-28T14:06:31;7.40;51.20
27671;DHT22;15077;49.704;9.908;2023-02-28T14:08:59;7.40;50.90
27671;DHT22;15077;49.704;9.908;2023-02-28T14:11:34;7.40;52.00
27671;DHT22;15077;49.704;9.908;2023-02-28T14:14:04;7.40;51.00
27671;DHT22;15077;49.704;9.908;2023-02-28T14:16:45;7.40;52.10
27671;DHT22;15077;49.704;9.908;2023-02-28T14:19:17;7.50;51.80
27671;DHT22;15077;49.704;9.908;2023-02-28T14:22:25;7.50;51.50
27671;DHT22;15077;49.704;9.908;2023-02-28T14:25:10;7.50;51.50
27671;DHT22;15077;49.704;9.908;2023-02-28T14:31:38;7.50;51.70
27671;DHT22;15077;49.704;9.908;2023-02-28T14:34:20;7.50;51.80
27671;DHT22;15077;49.704;9.908;2023-02-28T14:36:50;7.50;51.50
27671;DHT22;15077;49.704;9.908;2023-02-28T14:39:23;7.50;51.60
27671;DHT22;15077;49.704;9.908;2023-02-28T14:41:51;7.60;51.40
27671;DHT22;15077;49.704;9.908;2023-02-28T14:44:22;7.60;51.70
27671;DHT22;15077;49.704;9.908;2023-02-28T14:46:56;7.60;51.40
27671;DHT22;15077;49.704;9.908;2023-02-28T14:52:06;7.60;51.80
27671;DHT22;15077;49.704;9.908;2023-02-28T14:54:35;7.50;51.40
27671;DHT22;15077;49.704;9.908;2023-02-28T14:57:05;7.50;51.60
27671;DHT22;15077;49.704;9.908;2023-02-28T14:59:33;7.50;51.20
27671;DHT22;15077;49.704;9.908;2023-02-28T15:02:35;7.50;51.30
27671;DHT22;15077;49.704;9.908;2023-02-28T15:05:27;7.60;51.60
27671;DHT22;15077;49.704;9.908;2023-02-28T15:08:09;7.50;51.70
27671;DHT22;15077;49.704;9.908;2023-02-28T15:10:43;7.60;51.10
27671;DHT22;15077;49.704;9.908;2023-02-28T15:13:14;7.50;51.60
27671;DHT22;15077;49.704;9.908;2023-02-28T15:18:48;7.50;51.50
27671;DHT22;15077;49.704;9.908;2023-02-28T15:21:22;7.60;51.80
27671;DHT22;15077;49.704;9.908;2023-02-28T15:26:39;7.60;51.40
27671;DHT22;15077;49.704;9.908;2023-02-28T15:29:22;7.50;51.10
27671;DHT22;15077;49.704;9.908;2023-02-28T15:31:58;7.60;51.10
27671;DHT22;15077;49.704;9.908;2023-02-28T15:34:38;7.50;51.60
27671;DHT22;15077;49.704;9.908;2023-02-28T15:37:44;7.50;51.30
27671;DHT22;15077;49.704;9.908;2023-02-28T15:42:42;7.40;51.60
27671;DHT22;15077;49.704;9.908;2023-02-28T15:48:20;7.40;51.80
27671;DHT22;15077;49.704;9.908;2023-02-28T15:50:56;7.40;51.60
27671;DHT22;15077;49.704;9.908;2023-02-28T15:53:31;7.40;51.70
27671;DHT22;15077;49.704;9.908;2023-02-28T15:56:06;7.40;51.30
27671;DHT22;15077;49.704;9.908;2023-02-28T15:58:44;7.30;51.50
27671;DHT22;15077;49.704;9.908;2023-02-28T16:01:24;7.30;51.80
27671;DHT22;15077;49.704;9.908;2023-02-28T16:03:55;7.30;51.90
27671;DHT22;15077;49.704;9.908;2023-02-28T16:06:44;7.30;51.90
27671;DHT22;15077;49.704;9.908;2023-02-28T16:09:13;7.20;51.90
27671;DHT22;15077;49.704;9.908;2023-02-28T16:11:43;7.20;51.80
27671;DHT22;15077;49.704;9.908;2023-02-28T16:14:17;7.20;51.90
27671;DHT22;15077;49.704;9.908;2023-02-28T16:16:49;7.10;51.90
27671;DHT22;15077;49.704;9.908;2023-02-28T16:19:17;7.10;52.00
27671;DHT22;15077;49.704;9.908;2023-02-28T16:21:44;7.00;52.00
27671;DHT22;15077;49.704;9.908;2023-02-28T16:24:10;6.90;52.00
27671;DHT22;15077;49.704;9.908;2023-02-28T16:26:36;6.90;52.70
27671;DHT22;15077;49.704;9.908;2023-02-28T16:29:05;6.90;52.10
27671;DHT22;15077;49.704;9.908;2023-02-28T16:31:37;6.80;52.20
27671;DHT22;15077;49.704;9.908;2023-02-28T16:34:04;6.80;52.30
27671;DHT22;15077;49.704;9.908;2023-02-28T16:36:30;6.70;52.90
27671;DHT22;15077;49.704;9.908;2023-02-28T16:38:56;6.70;52.50
27671;DHT22;15077;49.704;9.908;2023-02-28T16:41:24;6.60;52.40
27671;DHT22;15077;49.704;9.908;2023-02-28T16:43:54;6.60;52.60
27671;DHT22;15077;49.704;9.908;2023-02-28T16:46:28;6.50;53.20
27671;DHT22;15077;49.704;9.908;2023-02-28T16:48:57;6.50;52.70
27671;DHT22;15077;49.704;9.908;2023-02-28T16:51:22;6.50;52.80
27671;DHT22;15077;49.704;9.908;2023-02-28T16:53:48;6.50;53.00
27671;DHT22;15077;49.704;9.908;2023-02-28T16:56:20;6.40;53.00
27671;DHT22;15077;49.704;9.908;2023-02-28T16:58:49;6.40;53.10
27671;DHT22;15077;49.704;9.908;2023-02-28T17:01:17;6.50;53.20
27671;DHT22;15077;49.704;9.908;2023-02-28T17:03:48;6.40;53.90
27671;DHT22;15077;49.704;9.908;2023-02-28T17:06:20;6.40;53.30
27671;DHT22;15077;49.704;9.908;2023-02-28T17:08:50;6.40;53.30
27671;DHT22;15077;49.704;9.908;2023-02-28T17:11:18;6.40;53.20
27671;DHT22;15077;49.704;9.908;2023-02-28T17:13:44;6.50;53.20
27671;DHT22;15077;49.704;9.908;2023-02-28T17:16:27;6.40;53.20
27671;DHT22;15077;49.704;9.908;2023-02-28T17:19:01;6.40;53.20
27671;DHT22;15077;49.704;9.908;2023-02-28T17:21:29;6.40;53.20
27671;DHT22;15077;49.704;9.908;2023-02-28T17:23:57;6.40;53.20
27671;DHT22;15077;49.704;9.908;2023-02-28T17:26:23;6.40;53.30
27671;DHT22;15077;49.704;9.908;2023-02-28T17:28:54;6.30;53.20
27671;DHT22;15077;49.704;9.908;2023-02-28T17:31:23;6.30;53.20
27671;DHT22;15077;49.704;9.908;2023-02-28T17:33:51;6.30;53.30
27671;DHT22;15077;49.704;9.908;2023-02-28T17:36:25;6.20;53.30
27671;DHT22;15077;49.704;9.908;2023-02-28T17:38:53;6.20;53.40
27671;DHT22;15077;49.704;9.908;2023-02-28T17:41:20;6.20;53.40
27671;DHT22;15077;49.704;9.908;2023-02-28T17:43:47;6.20;53.50
27671;DHT22;15077;49.704;9.908;2023-02-28T17:46:17;6.10;53.40
27671;DHT22;15077;49.704;9.908;2023-02-28T17:48:46;6.10;53.50
27671;DHT22;15077;49.704;9.908;2023-02-28T17:51:14;6.10;53.50
27671;DHT22;15077;49.704;9.908;2023-02-28T17:53:41;6.00;53.50
27671;DHT22;15077;49.704;9.908;2023-02-28T17:56:24;6.00;53.50
27671;DHT22;15077;49.704;9.908;2023-02-28T17:58:53;6.00;53.60
27671;DHT22;15077;49.704;9.908;2023-02-28T18:01:20;5.90;53.50
27671;DHT22;15077;49.704;9.908;2023-02-28T18:03:48;5.90;53.60
27671;DHT22;15077;49.704;9.908;2023-02-28T18:06:32;5.90;53.70
27671;DHT22;15077;49.704;9.908;2023-02-28T18:09:01;5.80;53.70
27671;DHT22;15077;49.704;9.908;2023-02-28T18:11:27;5.80;53.70
27671;DHT22;15077;49.704;9.908;2023-02-28T18:14:07;5.80;53.70
27671;DHT22;15077;49.704;9.908;2023-02-28T18:16:33;5.80;53.80
27671;DHT22;15077;49.704;9.908;2023-02-28T18:18:59;5.70;53.80
27671;DHT22;15077;49.704;9.908;2023-02-28T18:21:27;5.70;53.80
27671;DHT22;15077;49.704;9.908;2023-02-28T18:23:53;5.70;53.80
27671;DHT22;15077;49.704;9.908;2023-02-28T18:26:19;5.70;53.90
27671;DHT22;15077;49.704;9.908;2023-02-28T18:28:46;5.60;53.90
27671;DHT22;15077;49.704;9.908;2023-02-28T18:31:15;5.60;53.80
27671;DHT22;15077;49.704;9.908;2023-02-28T18:33:50;5.60;53.80
27671;DHT22;15077;49.704;9.908;2023-02-28T18:36:18;5.50;53.80
27671;DHT22;15077;49.704;9.908;2023-02-28T18:38:46;5.50;53.80